Terminal Aerodrome Forecast
Issued by NWS

Current Version | Previous Version | Graphics & Text | Print | Product List | Glossary On
Versions: 1 2 3 4 5 6 7 8 9 10 11 12 13 14 15 16 17 18 19 20
751
FTUS41 KILN 272335
TAFLCK
TAF
KLCK 272335Z 2800/2824 26012G22KT P6SM FEW040 SCT250
     FM280100 24006KT P6SM FEW250
     FM280600 00000KT P6SM SCT250
     FM281500 16006KT P6SM BKN120=

USA.gov is the U.S. government's official web portal to all federal, state and local government web resources and services.